Time;durP1;ratioP1;P1;durP2;ratioP2;P2;SDS_P1;SDS_P2;PMS_P1;PMS_P2;Temp;Humidity;BMP_temperature;BMP_pressure;BME280_temperature;BME280_humidity;BME280_pressure;Samples;Min_cycle;Max_cycle;Signal;HPM_P1;HPM_P2
2022/09/24 00:01:29;;;;;;;33.65;27.48;;;14.20;99.90;;;;;;5085829;28;20035;-78
2022/09/24 00:04:10;;;;;;;35.85;27.98;;;14.00;99.90;;;;;;5080109;28;20020;-80
2022/09/24 00:06:43;;;;;;;34.67;27.20;;;14.10;99.90;;;;;;5052693;28;20044;-79
2022/09/24 00:09:10;;;;;;;36.80;28.95;;;14.30;99.90;;;;;;5076967;28;20070;-78
2022/09/24 00:11:37;;;;;;;36.20;28.67;;;14.20;99.90;;;;;;5080672;28;20036;-77
2022/09/24 00:14:05;;;;;;;33.28;27.17;;;14.20;99.90;;;;;;5071519;28;20368;-78
2022/09/24 00:16:35;;;;;;;34.22;26.60;;;14.10;99.90;;;;;;5084143;28;20040;-78
2022/09/24 00:19:04;;;;;;;34.45;27.85;;;14.10;99.90;;;;;;5081814;28;20066;-78
2022/09/24 00:21:33;;;;;;;37.80;30.05;;;14.30;99.90;;;;;;5090733;28;20043;-78
2022/09/24 00:27:36;;;;;;;48.30;35.63;;;14.20;99.90;;;;;;5084671;28;20225;-80
2022/09/24 00:30:05;;;;;;;43.92;34.40;;;14.20;99.90;;;;;;5099025;28;20028;-79
2022/09/24 00:32:31;;;;;;;44.28;34.38;;;14.80;99.90;;;;;;5069252;28;20160;-80
2022/09/24 00:34:57;;;;;;;39.38;31.50;;;15.10;99.90;;;;;;5059950;28;20082;-80
2022/09/24 00:37:22;;;;;;;40.70;31.92;;;14.10;99.90;;;;;;5055156;28;20032;-81
2022/09/24 00:39:48;;;;;;;47.22;35.17;;;14.10;99.90;;;;;;5047873;28;20054;-79
2022/09/24 00:42:14;;;;;;;48.03;37.53;;;14.20;99.90;;;;;;5062381;28;20044;-78
2022/09/24 00:44:39;;;;;;;46.95;36.38;;;14.20;99.90;;;;;;5057544;28;20077;-78
2022/09/24 00:47:17;;;;;;;50.47;38.72;;;14.40;99.90;;;;;;5083286;28;20048;-78
2022/09/24 00:49:43;;;;;;;48.60;35.00;;;14.40;99.90;;;;;;5076046;28;20051;-79
2022/09/24 00:52:09;;;;;;;47.65;38.75;;;14.30;99.90;;;;;;5068145;28;20031;-79
2022/09/24 00:54:36;;;;;;;53.33;39.47;;;14.30;99.90;;;;;;5093139;28;20323;-80
2022/09/24 00:57:02;;;;;;;47.22;36.95;;;14.30;99.90;;;;;;5086168;28;20032;-79
2022/09/24 00:59:28;;;;;;;52.17;38.97;;;14.20;99.90;;;;;;5048290;28;20063;-79
2022/09/24 01:01:56;;;;;;;49.20;38.35;;;14.50;99.90;;;;;;5092527;28;20344;-78
2022/09/24 01:04:23;;;;;;;50.85;38.42;;;14.50;99.90;;;;;;5093857;28;20044;-80
2022/09/24 01:06:49;;;;;;;51.28;39.72;;;14.30;99.90;;;;;;5080197;28;20447;-77
2022/09/24 01:09:17;;;;;;;48.38;38.28;;;14.60;99.90;;;;;;5080109;28;20074;-79
2022/09/24 01:12:02;;;;;;;49.10;38.75;;;14.40;99.90;;;;;;5094142;28;20290;-78
2022/09/24 01:14:31;;;;;;;47.45;36.40;;;14.40;99.90;;;;;;5096016;28;20028;-80
2022/09/24 01:17:15;;;;;;;50.67;36.63;;;14.50;99.90;;;;;;5109351;28;20055;-79
2022/09/24 01:20:06;;;;;;;47.13;37.03;;;14.50;99.90;;;;;;5078615;28;20023;-79
2022/09/24 01:22:59;;;;;;;50.00;37.03;;;14.40;99.90;;;;;;5095522;28;20058;-79
2022/09/24 01:25:45;;;;;;;47.38;37.58;;;14.50;99.90;;;;;;5075447;28;20035;-78
2022/09/24 01:28:19;;;;;;;45.00;34.50;;;14.40;99.90;;;;;;5073773;28;20054;-79
2022/09/24 01:31:19;;;;;;;45.92;35.35;;;15.00;99.90;;;;;;5086182;28;20039;-78
2022/09/24 01:33:52;;;;;;;43.40;35.85;;;15.10;99.90;;;;;;5093690;28;20097;-80
2022/09/24 01:36:19;;;;;;;48.35;37.67;;;14.20;99.90;;;;;;5077603;28;20107;-77
2022/09/24 01:38:48;;;;;;;52.20;38.92;;;14.50;99.90;;;;;;5065511;28;20056;-78
2022/09/24 01:41:15;;;;;;;64.18;44.25;;;14.30;99.90;;;;;;5078795;28;20040;-81
2022/09/24 01:43:41;;;;;;;69.00;46.50;;;14.70;99.90;;;;;;5057616;28;20085;-78
2022/09/24 01:46:09;;;;;;;55.97;43.03;;;14.30;99.90;;;;;;5070518;28;20111;-79
2022/09/24 01:48:39;;;;;;;71.22;47.95;;;14.30;99.90;;;;;;5081528;28;20322;-80
2022/09/24 01:51:13;;;;;;;62.25;43.15;;;14.80;99.90;;;;;;5089603;28;20036;-77
2022/09/24 01:53:56;;;;;;;83.43;47.95;;;14.80;99.90;;;;;;5101140;28;20035;-79
2022/09/24 01:56:27;;;;;;;60.42;43.33;;;14.40;99.90;;;;;;5071114;28;20036;-77
2022/09/24 01:59:22;;;;;;;69.68;43.63;;;14.20;99.90;;;;;;5095518;28;20051;-76
2022/09/24 02:01:58;;;;;;;68.40;43.83;;;14.90;99.90;;;;;;5102651;28;20037;-78
2022/09/24 02:04:27;;;;;;;63.55;42.33;;;14.70;99.90;;;;;;5075289;28;20032;-77
2022/09/24 02:07:03;;;;;;;64.28;43.60;;;14.50;99.90;;;;;;5081432;28;20234;-77
2022/09/24 02:09:32;;;;;;;61.33;43.65;;;14.30;99.90;;;;;;5095723;28;20354;-77
2022/09/24 02:12:06;;;;;;;69.15;44.80;;;14.30;99.90;;;;;;5088348;28;20107;-78
2022/09/24 02:14:38;;;;;;;63.58;43.67;;;14.40;99.90;;;;;;5092131;28;20046;-77
2022/09/24 02:17:28;;;;;;;68.63;44.85;;;14.30;99.90;;;;;;5086601;28;20391;-78
2022/09/24 02:19:57;;;;;;;65.18;44.92;;;14.90;99.90;;;;;;5055672;28;20028;-78
2022/09/24 02:22:27;;;;;;;70.53;44.95;;;14.20;99.90;;;;;;5068206;28;20032;-77
2022/09/24 02:24:56;;;;;;;63.58;44.67;;;14.90;99.90;;;;;;5070299;28;20037;-76
2022/09/24 02:27:26;;;;;;;66.50;45.17;;;14.90;99.90;;;;;;5080538;28;20054;-79
2022/09/24 02:29:52;;;;;;;71.95;47.17;;;14.60;99.90;;;;;;5069850;28;20214;-78
2022/09/24 02:32:20;;;;;;;74.75;47.47;;;14.30;99.90;;;;;;5085595;28;20024;-77
2022/09/24 02:34:52;;;;;;;55.75;40.65;;;14.90;99.90;;;;;;5058535;28;20038;-74
2022/09/24 02:37:33;;;;;;;83.13;45.05;;;14.50;99.90;;;;;;5073575;28;20024;-79
2022/09/24 02:40:14;;;;;;;61.67;39.67;;;14.70;99.90;;;;;;5097970;28;20052;-80
2022/09/24 02:42:42;;;;;;;53.55;36.00;;;14.30;99.90;;;;;;5065994;28;20126;-77
2022/09/24 02:45:10;;;;;;;49.33;33.40;;;14.60;99.90;;;;;;5099678;28;20215;-78
2022/09/24 02:47:36;;;;;;;57.08;36.78;;;15.00;99.90;;;;;;5080512;28;20184;-79
2022/09/24 02:50:02;;;;;;;60.88;38.97;;;14.30;99.90;;;;;;5048819;28;20040;-78
2022/09/24 02:52:28;;;;;;;53.63;36.28;;;14.50;99.90;;;;;;5078707;28;20333;-78
2022/09/24 02:54:53;;;;;;;62.30;39.55;;;14.80;99.90;;;;;;5076333;28;20035;-77
2022/09/24 02:57:19;;;;;;;63.70;41.50;;;14.60;99.90;;;;;;5066967;28;20028;-78
2022/09/24 02:59:45;;;;;;;60.85;38.03;;;14.90;99.90;;;;;;5095820;28;20024;-77
2022/09/24 03:02:11;;;;;;;80.03;41.72;;;15.00;99.90;;;;;;5072298;28;20055;-78
2022/09/24 03:04:37;;;;;;;69.20;42.83;;;14.40;99.90;;;;;;5068049;28;20105;-79
2022/09/24 03:07:04;;;;;;;111.35;46.42;;;15.00;99.90;;;;;;5071233;28;20098;-76
2022/09/24 03:09:29;;;;;;;71.88;38.20;;;14.50;99.90;;;;;;5085926;28;20044;-77
2022/09/24 03:11:59;;;;;;;57.10;36.70;;;14.50;99.90;;;;;;5053049;28;20146;-76
2022/09/24 03:14:47;;;;;;;72.47;39.38;;;14.50;99.90;;;;;;5067427;28;20039;-77
2022/09/24 03:18:07;;;;;;;;;;;;;;;;;;;;;
2022/09/24 03:21:19;;;;;;;59.17;28.33;;;15.00;99.90;;;;;;5091705;28;20199;-81
2022/09/24 03:24:04;;;;;;;;;;;;;;;;;;;;;
2022/09/24 03:26:48;;;;;;;40.90;27.15;;;13.70;99.90;;;;;;5088143;28;20085;-78
2022/09/24 03:29:14;;;;;;;33.70;24.45;;;14.20;99.90;;;;;;5064085;28;20028;-81
2022/09/24 03:31:39;;;;;;;34.63;21.80;;;14.50;99.90;;;;;;5084755;28;20020;-79
2022/09/24 03:34:05;;;;;;;30.80;18.65;;;15.30;99.90;;;;;;5051511;28;20039;-80
2022/09/24 03:36:40;;;;;;;29.65;18.67;;;15.10;99.90;;;;;;5066501;28;20028;-77
2022/09/24 03:39:06;;;;;;;26.35;17.83;;;14.50;99.90;;;;;;5064211;28;20138;-77
2022/09/24 03:41:31;;;;;;;31.27;18.45;;;15.10;99.90;;;;;;5061170;28;20033;-76
2022/09/24 03:44:06;;;;;;;24.95;16.08;;;15.30;99.90;;;;;;5067448;28;20348;-79
2022/09/24 03:46:34;;;;;;;18.00;12.02;;;15.10;99.90;;;;;;5052170;28;20027;-80
2022/09/24 03:49:18;;;;;;;15.82;9.95;;;15.20;99.90;;;;;;5065561;28;20027;-80
2022/09/24 03:51:44;;;;;;;10.48;8.20;;;15.60;99.90;;;;;;5052814;28;20067;-79
2022/09/24 03:54:10;;;;;;;9.60;7.70;;;14.90;99.90;;;;;;5052619;28;20032;-77
2022/09/24 03:56:36;;;;;;;9.10;7.22;;;15.00;99.90;;;;;;5081176;28;20036;-77
2022/09/24 03:59:01;;;;;;;9.10;6.97;;;14.30;99.90;;;;;;5046315;28;20036;-80
2022/09/24 04:01:37;;;;;;;8.40;6.28;;;14.20;99.90;;;;;;5052826;28;20059;-77
2022/09/24 04:07:17;;;;;;;8.20;6.47;;;14.30;99.90;;;;;;5014907;28;20081;-77
2022/09/24 04:09:45;;;;;;;6.68;5.65;;;15.10;99.90;;;;;;5103026;28;20073;-79
2022/09/24 04:12:27;;;;;;;8.73;6.45;;;14.60;99.90;;;;;;5063777;28;20039;-77
2022/09/24 04:15:16;;;;;;;8.82;6.68;;;14.70;99.90;;;;;;5089465;28;20078;-77
2022/09/24 04:18:05;;;;;;;9.05;6.90;;;15.20;99.90;;;;;;5051583;28;20053;-78
2022/09/24 04:20:57;;;;;;;20.50;13.52;;;14.20;99.90;;;;;;5073135;28;20090;-78
2022/09/24 04:24:04;;;;;;;21.65;14.52;;;14.40;99.90;;;;;;5075395;28;20028;-78
2022/09/24 04:26:29;;;;;;;20.70;13.98;;;14.50;99.90;;;;;;5067056;28;20226;-78
2022/09/24 04:28:58;;;;;;;17.80;13.05;;;14.60;99.90;;;;;;5058567;28;20036;-78
2022/09/24 04:31:26;;;;;;;17.75;14.05;;;14.80;99.90;;;;;;5057655;28;20093;-77
2022/09/24 04:33:53;;;;;;;19.75;13.32;;;15.20;99.90;;;;;;5062636;28;20095;-78
2022/09/24 04:36:43;;;;;;;27.48;16.15;;;15.20;99.90;;;;;;5074211;28;20032;-77
2022/09/24 04:39:15;;;;;;;25.08;15.95;;;15.20;99.90;;;;;;5051057;28;20050;-78
2022/09/24 04:41:57;;;;;;;26.38;16.17;;;15.50;99.90;;;;;;5038887;28;20096;-78
2022/09/24 04:44:40;;;;;;;25.52;16.73;;;15.20;99.90;;;;;;5017224;28;20029;-78
2022/09/24 04:47:35;;;;;;;41.70;19.58;;;15.00;99.90;;;;;;5035763;28;20106;-79
2022/09/24 04:53:03;;;;;;;30.35;20.17;;;14.20;99.90;;;;;;5023578;28;20045;-78
2022/09/24 04:55:30;;;;;;;36.13;21.17;;;14.80;99.90;;;;;;5035490;28;20041;-77
2022/09/24 04:58:01;;;;;;;27.65;17.30;;;15.40;99.90;;;;;;5017586;28;20240;-77
2022/09/24 05:00:27;;;;;;;30.25;17.27;;;14.70;99.90;;;;;;4998714;28;20044;-78
2022/09/24 05:03:02;;;;;;;32.97;17.55;;;14.70;99.90;;;;;;5002196;28;21421;-77
2022/09/24 05:05:28;;;;;;;27.90;17.75;;;15.30;99.90;;;;;;4998604;28;20037;-78
2022/09/24 05:08:03;;;;;;;23.08;13.70;;;15.50;99.90;;;;;;5017783;28;20029;-77
2022/09/24 05:10:32;;;;;;;16.58;9.05;;;15.30;99.90;;;;;;4987205;28;20038;-78
2022/09/24 05:12:58;;;;;;;16.30;6.07;;;15.30;99.90;;;;;;5016961;28;20029;-78
2022/09/24 05:15:23;;;;;;;13.18;4.55;;;15.30;99.90;;;;;;5024740;28;20034;-76
2022/09/24 05:17:49;;;;;;;14.23;4.00;;;15.10;99.90;;;;;;5008788;28;20030;-77
2022/09/24 05:20:21;;;;;;;9.68;2.85;;;14.60;99.90;;;;;;5016286;28;20034;-77
2022/09/24 05:23:01;;;;;;;14.57;2.80;;;15.40;99.90;;;;;;5017388;28;20056;-78
2022/09/24 05:28:58;;;;;;;13.10;2.15;;;14.80;99.90;;;;;;5026748;28;20193;-78
2022/09/24 05:31:24;;;;;;;11.77;2.00;;;14.70;99.90;;;;;;5041109;28;20071;-77
2022/09/24 05:33:50;;;;;;;9.15;2.20;;;14.30;99.90;;;;;;5040474;28;20045;-78
2022/09/24 05:36:17;;;;;;;13.23;2.10;;;15.30;99.90;;;;;;5058175;28;20040;-78
2022/09/24 05:38:42;;;;;;;11.15;2.30;;;15.50;99.90;;;;;;5045206;28;20025;-77
2022/09/24 05:41:08;;;;;;;7.72;1.92;;;14.70;99.90;;;;;;5013450;28;20131;-77
2022/09/24 05:43:34;;;;;;;9.77;2.15;;;15.20;99.90;;;;;;5002943;28;20025;-76
2022/09/24 05:45:59;;;;;;;8.43;1.92;;;14.40;99.90;;;;;;5057336;28;20041;-77
2022/09/24 05:48:25;;;;;;;8.85;1.88;;;15.00;99.90;;;;;;5007790;28;20044;-77
2022/09/24 05:50:54;;;;;;;13.73;2.42;;;14.40;99.90;;;;;;5029806;28;20025;-78
2022/09/24 05:53:21;;;;;;;15.18;2.08;;;15.50;99.90;;;;;;4992843;28;20029;-77
2022/09/24 05:55:47;;;;;;;9.80;1.83;;;14.50;99.90;;;;;;5008544;28;20334;-78
2022/09/24 05:58:17;;;;;;;10.30;2.13;;;14.80;99.90;;;;;;5012835;28;20017;-81
2022/09/24 06:00:44;;;;;;;11.60;2.15;;;14.50;99.90;;;;;;5061777;28;20112;-80
2022/09/24 06:07:14;;;;;;;11.80;2.10;;;14.50;99.90;;;;;;4988480;28;20038;-81
2022/09/24 06:09:40;;;;;;;14.63;2.35;;;14.60;99.90;;;;;;4978932;28;20061;-81
2022/09/24 06:12:09;;;;;;;11.80;2.15;;;15.10;99.90;;;;;;4985131;28;20068;-81
2022/09/24 06:14:36;;;;;;;6.63;1.90;;;14.40;99.90;;;;;;5050678;28;20168;-79
2022/09/24 06:17:01;;;;;;;11.48;2.08;;;14.60;99.90;;;;;;5027481;28;20159;-79
2022/09/24 06:19:27;;;;;;;10.35;2.33;;;14.80;99.90;;;;;;5040753;28;20327;-78
2022/09/24 06:21:53;;;;;;;13.65;2.08;;;14.90;99.90;;;;;;5039965;28;20029;-78
2022/09/24 06:24:57;;;;;;;11.40;2.20;;;15.00;99.90;;;;;;5020756;28;20307;-79
2022/09/24 06:27:23;;;;;;;18.40;1.92;;;14.80;99.90;;;;;;5022355;28;20037;-79
2022/09/24 06:29:49;;;;;;;11.75;2.00;;;15.60;99.90;;;;;;5033864;28;20033;-79
2022/09/24 06:32:45;;;;;;;11.70;2.30;;;13.90;99.90;;;;;;5043275;28;20087;-79
2022/09/24 06:39:33;;;;;;;8.95;2.13;;;14.40;99.90;;;;;;4941126;28;20121;-78
2022/09/24 06:42:01;;;;;;;10.77;2.20;;;15.60;99.90;;;;;;4989883;28;20042;-77
2022/09/24 06:44:48;;;;;;;11.05;2.50;;;15.20;99.90;;;;;;4985993;28;20286;-78
2022/09/24 06:47:13;;;;;;;11.05;2.28;;;14.60;99.90;;;;;;5036434;28;20044;-79
2022/09/24 06:49:40;;;;;;;9.55;2.30;;;15.40;99.90;;;;;;5021454;28;20103;-80
2022/09/24 06:52:06;;;;;;;14.88;2.58;;;15.60;99.90;;;;;;5054844;28;20039;-79
2022/09/24 06:54:31;;;;;;;10.35;2.63;;;15.50;99.90;;;;;;5030713;28;20020;-79
2022/09/24 06:56:57;;;;;;;8.82;2.00;;;15.70;99.90;;;;;;5045226;28;20354;-78
2022/09/24 06:59:23;;;;;;;10.93;2.20;;;15.50;99.90;;;;;;5029763;28;20040;-77
2022/09/24 07:01:48;;;;;;;9.23;1.90;;;15.40;99.90;;;;;;5031476;28;20039;-77
2022/09/24 07:04:14;;;;;;;9.25;2.15;;;14.50;99.90;;;;;;5061262;28;20265;-77
2022/09/24 07:09:24;;;;;;;16.65;1.98;;;14.40;99.90;;;;;;5039565;28;20028;-77
2022/09/24 07:11:49;;;;;;;12.57;1.90;;;15.20;99.90;;;;;;5064601;28;20249;-77
2022/09/24 07:14:27;;;;;;;9.27;2.05;;;14.70;99.90;;;;;;5050260;28;20039;-79
2022/09/24 07:16:55;;;;;;;3.47;1.60;;;14.70;99.90;;;;;;5050819;28;20087;-78
2022/09/24 07:19:21;;;;;;;7.47;2.00;;;14.60;99.90;;;;;;5064818;28;20027;-77
2022/09/24 07:21:47;;;;;;;7.88;2.75;;;14.60;99.90;;;;;;5062830;28;20036;-76
2022/09/24 07:24:12;;;;;;;6.35;2.10;;;14.60;99.90;;;;;;5039105;28;20052;-77
2022/09/24 07:26:38;;;;;;;10.57;1.80;;;15.40;99.90;;;;;;5039958;28;20100;-80
2022/09/24 07:29:04;;;;;;;8.57;1.48;;;14.80;99.90;;;;;;5045148;28;20039;-77
2022/09/24 07:31:30;;;;;;;8.98;1.70;;;15.50;99.90;;;;;;5054945;28;20045;-78
2022/09/24 07:33:55;;;;;;;7.70;2.08;;;14.80;99.90;;;;;;5045185;28;20056;-77
2022/09/24 07:36:21;;;;;;;8.68;1.88;;;15.50;99.90;;;;;;5080271;28;20041;-77
2022/09/24 07:38:48;;;;;;;7.63;1.80;;;14.90;99.90;;;;;;5079333;28;20308;-78
2022/09/24 07:41:14;;;;;;;10.52;2.22;;;14.40;99.90;;;;;;5059873;28;20109;-77
2022/09/24 07:43:47;;;;;;;9.15;1.83;;;15.40;99.90;;;;;;5075118;28;20048;-76
2022/09/24 07:46:13;;;;;;;10.63;1.90;;;15.10;99.90;;;;;;5077554;28;20208;-77
2022/09/24 07:48:38;;;;;;;8.10;2.10;;;15.00;99.90;;;;;;5044289;28;20040;-78
2022/09/24 07:51:08;;;;;;;6.03;1.75;;;15.40;99.90;;;;;;5061312;28;20111;-76
2022/09/24 07:53:34;;;;;;;11.57;1.88;;;14.40;99.90;;;;;;5047615;28;20036;-76
2022/09/24 07:56:38;;;;;;;8.95;2.20;;;14.70;99.90;;;;;;5065365;28;20042;-77
2022/09/24 07:59:09;;;;;;;6.53;1.65;;;15.50;99.90;;;;;;5060018;28;20112;-77
2022/09/24 08:01:36;;;;;;;7.85;2.00;;;14.60;99.90;;;;;;5063532;28;20036;-77
2022/09/24 08:04:03;;;;;;;12.63;2.20;;;15.80;99.90;;;;;;5043520;28;20258;-76
2022/09/24 08:06:33;;;;;;;12.02;2.35;;;15.20;99.90;;;;;;5045538;28;20036;-75
2022/09/24 08:08:59;;;;;;;8.32;1.80;;;15.00;99.90;;;;;;5062457;28;20305;-76
2022/09/24 08:11:25;;;;;;;8.73;2.08;;;15.80;99.90;;;;;;5029528;28;20028;-76
2022/09/24 08:13:51;;;;;;;10.25;2.22;;;15.10;99.90;;;;;;5080450;28;20100;-74
2022/09/24 08:16:20;;;;;;;8.57;1.92;;;15.70;99.90;;;;;;5070600;28;20036;-76
2022/09/24 08:18:46;;;;;;;12.75;1.80;;;15.40;99.90;;;;;;5080674;28;20028;-75
2022/09/24 08:22:06;;;;;;;6.43;1.45;;;14.50;99.90;;;;;;5083219;28;20087;-76
2022/09/24 08:28:24;;;;;;;10.40;2.22;;;14.80;99.90;;;;;;4913208;28;20430;-76
2022/09/24 08:30:50;;;;;;;9.23;1.77;;;14.80;99.90;;;;;;5040374;28;20091;-75
2022/09/24 08:33:37;;;;;;;13.50;2.25;;;15.10;99.90;;;;;;5063207;28;20063;-76
2022/09/24 08:36:09;;;;;;;10.98;1.85;;;15.70;99.90;;;;;;5062112;28;20099;-75
2022/09/24 08:38:48;;;;;;;16.15;2.00;;;14.80;99.90;;;;;;5060509;28;20024;-76
2022/09/24 08:41:53;;;;;;;9.23;2.63;;;15.50;99.90;;;;;;5065660;28;20039;-76
2022/09/24 08:47:28;;;;;;;5.53;1.90;;;15.80;99.90;;;;;;5080750;28;20055;-76
2022/09/24 08:50:16;;;;;;;13.68;2.40;;;15.90;99.90;;;;;;5084710;28;20020;-75
2022/09/24 08:52:58;;;;;;;10.15;1.95;;;16.20;99.90;;;;;;5087942;28;20064;-73
2022/09/24 08:55:38;;;;;;;7.47;1.63;;;15.20;99.90;;;;;;5067946;28;20041;-78
2022/09/24 08:58:19;;;;;;;12.07;1.83;;;16.20;99.90;;;;;;5046073;28;20024;-76
2022/09/24 09:00:50;;;;;;;12.05;2.88;;;15.80;99.90;;;;;;5057042;28;20093;-74
2022/09/24 09:03:36;;;;;;;9.13;1.77;;;15.30;99.90;;;;;;5082974;28;20032;-74
2022/09/24 09:06:03;;;;;;;;;;;15.80;99.90;;;;;;5073202;28;20036;-74
2022/09/24 09:08:51;;;;;;;7.13;1.83;;;16.00;99.90;;;;;;5082203;28;19921;-73
2022/09/24 09:11:23;;;;;;;5.93;1.23;;;15.90;99.90;;;;;;5054458;28;20032;-75
2022/09/24 09:14:12;;;;;;;7.30;1.50;;;16.00;99.90;;;;;;5093554;28;20063;-75
2022/09/24 09:16:43;;;;;;;10.73;2.00;;;15.60;99.90;;;;;;5076483;28;20093;-75
2022/09/24 09:19:13;;;;;;;8.82;2.03;;;15.50;99.90;;;;;;5062902;28;20075;-75
2022/09/24 09:21:41;;;;;;;9.30;1.65;;;15.00;99.90;;;;;;5085302;28;20028;-75
2022/09/24 09:24:16;;;;;;;8.88;2.53;;;15.90;99.90;;;;;;5083911;28;20043;-75
2022/09/24 09:26:49;;;;;;;8.43;1.65;;;15.40;99.90;;;;;;5065298;28;20242;-76
2022/09/24 09:29:15;;;;;;;6.25;1.50;;;15.30;99.90;;;;;;5065730;28;20060;-74
2022/09/24 09:32:09;;;;;;;7.25;1.63;;;14.90;99.90;;;;;;5065509;28;20301;-74
2022/09/24 09:34:43;;;;;;;5.80;1.13;;;15.10;99.90;;;;;;5065648;28;20263;-74
2022/09/24 09:37:43;;;;;;;7.78;1.60;;;14.90;99.90;;;;;;5081441;28;20423;-75
2022/09/24 09:40:36;;;;;;;6.25;1.77;;;14.70;99.90;;;;;;5081145;28;20080;-74
2022/09/24 09:43:10;;;;;;;6.72;1.35;;;14.80;99.90;;;;;;5048497;28;20053;-75
2022/09/24 09:46:10;;;;;;;5.13;1.42;;;15.50;99.90;;;;;;5074889;28;20338;-75
2022/09/24 09:48:54;;;;;;;5.75;1.58;;;14.50;99.90;;;;;;5081319;28;20036;-75
2022/09/24 09:51:24;;;;;;;5.85;1.73;;;15.20;99.90;;;;;;5065579;28;20034;-74
2022/09/24 09:54:01;;;;;;;6.75;1.38;;;14.70;99.90;;;;;;5082037;28;20103;-75
2022/09/24 09:56:35;;;;;;;5.68;1.40;;;15.30;99.90;;;;;;5056227;28;20041;-75
2022/09/24 09:59:29;;;;;;;5.65;1.42;;;14.50;99.90;;;;;;5071781;28;20016;-75
2022/09/24 10:01:56;;;;;;;9.18;1.52;;;14.60;99.90;;;;;;5055529;28;20075;-77
2022/09/24 10:04:41;;;;;;;4.25;1.40;;;14.50;99.90;;;;;;5048944;28;20188;-77
2022/09/24 10:07:25;;;;;;;8.90;1.73;;;15.40;99.90;;;;;;5047581;28;20095;-77
2022/09/24 10:10:18;;;;;;;6.22;1.50;;;15.20;99.90;;;;;;5063457;28;20040;-77
2022/09/24 10:23:38;;;;;;;6.97;1.40;;;16.40;99.90;;;;;;4959203;28;20065;-77
2022/09/24 10:26:10;;;;;;;4.60;1.40;;;15.30;99.90;;;;;;5004401;28;20049;-78
2022/09/24 10:31:37;;;;;;;7.43;1.90;;;15.50;99.90;;;;;;5019116;28;20104;-77
2022/09/24 10:34:17;;;;;;;5.80;1.73;;;14.80;99.90;;;;;;5055400;28;20040;-78
2022/09/24 10:36:50;;;;;;;6.00;1.67;;;15.60;99.90;;;;;;5081194;28;20036;-77
2022/09/24 10:39:17;;;;;;;5.00;1.30;;;15.60;99.90;;;;;;5063011;28;20056;-77
2022/09/24 10:41:56;;;;;;;5.50;1.27;;;15.40;99.90;;;;;;5060218;28;20090;-77
2022/09/24 10:44:42;;;;;;;7.63;1.40;;;14.70;99.90;;;;;;5028387;28;20051;-79
2022/09/24 10:59:50;;;;;;;;;;;;;;;;;;;;;
2022/09/24 11:03:18;;;;;;;4.85;1.20;;;14.60;99.90;;;;;;4892854;29;20044;-78
2022/09/24 11:10:11;;;;;;;;;;;;;;;;;;;;;
2022/09/24 11:13:22;;;;;;;3.90;1.02;;;14.80;99.90;;;;;;4950934;28;20040;-78
2022/09/24 11:16:17;;;;;;;4.90;1.20;;;15.30;99.90;;;;;;5021666;28;20048;-78
2022/09/24 11:19:03;;;;;;;3.70;0.85;;;14.80;99.90;;;;;;5036777;28;20116;-77
2022/09/24 11:21:57;;;;;;;6.95;1.58;;;15.20;99.90;;;;;;5043739;28;20387;-78
2022/09/24 11:24:41;;;;;;;2.40;0.93;;;15.20;99.90;;;;;;5053721;28;20032;-77
2022/09/24 11:27:15;;;;;;;7.78;1.42;;;15.30;99.90;;;;;;5063136;28;20275;-79
2022/09/24 11:30:07;;;;;;;4.32;1.20;;;14.90;99.90;;;;;;5060259;28;20425;-77
2022/09/24 11:32:40;;;;;;;6.45;1.92;;;15.30;99.90;;;;;;5047304;28;20118;-77
2022/09/24 11:35:26;;;;;;;5.85;1.27;;;15.40;99.90;;;;;;5080508;28;20029;-79
2022/09/24 11:38:01;;;;;;;6.03;1.25;;;15.30;99.90;;;;;;5058463;28;20098;-79
2022/09/24 11:41:04;;;;;;;7.22;1.23;;;15.30;99.90;;;;;;5059289;28;20339;-76
2022/09/24 11:43:59;;;;;;;7.07;1.25;;;14.80;99.90;;;;;;4964759;28;20043;-78
2022/09/24 11:47:05;;;;;;;4.50;1.10;;;14.90;99.90;;;;;;5048574;28;20045;-78
2022/09/24 11:50:18;;;;;;;6.80;1.33;;;14.90;99.90;;;;;;5007613;28;20099;-78
2022/09/24 11:53:22;;;;;;;4.45;1.30;;;14.40;99.90;;;;;;5044237;28;20068;-78
2022/09/24 11:56:03;;;;;;;8.75;1.60;;;15.30;99.90;;;;;;5056299;28;20422;-78
2022/09/24 11:59:01;;;;;;;7.07;1.42;;;15.10;99.90;;;;;;5062301;28;20295;-79
2022/09/24 12:01:55;;;;;;;;;;;;;;;;;;;;;
2022/09/24 12:04:53;;;;;;;4.40;1.30;;;15.80;99.90;;;;;;5079956;28;20048;-79
2022/09/24 12:07:28;;;;;;;6.25;1.10;;;15.00;99.90;;;;;;5053117;28;20310;-77
2022/09/24 12:21:35;;;;;;;6.38;1.30;;;14.80;99.90;;;;;;4982530;28;20038;-77
2022/09/24 12:24:12;;;;;;;6.10;1.10;;;15.40;99.90;;;;;;5025162;28;20351;-77
2022/09/24 12:26:42;;;;;;;6.65;1.30;;;13.80;99.90;;;;;;5023710;28;20328;-77
2022/09/24 12:35:30;;;;;;;;;;;;;;;;;;;;;
2022/09/24 12:38:23;;;;;;;6.05;1.20;;;14.40;99.90;;;;;;5080173;28;20245;-76
2022/09/24 12:45:20;;;;;;;3.70;0.90;;;15.40;99.90;;;;;;5073104;28;20182;-78
2022/09/24 12:48:23;;;;;;;;;;;;;;;;;;;;;
2022/09/24 12:50:59;;;;;;;4.53;0.98;;;15.30;99.90;;;;;;5076654;28;20024;-76
2022/09/24 12:53:32;;;;;;;6.40;1.20;;;15.10;99.90;;;;;;5065463;28;20032;-77
2022/09/24 12:56:03;;;;;;;2.80;0.80;;;15.10;99.90;;;;;;5060047;28;20215;-76
2022/09/24 12:58:37;;;;;;;3.75;0.95;;;14.60;99.90;;;;;;5046861;28;20036;-75
2022/09/24 13:01:22;;;;;;;9.20;1.10;;;14.80;99.90;;;;;;5075351;28;20029;-77
2022/09/24 13:04:24;;;;;;;6.90;1.40;;;15.20;99.90;;;;;;5065854;28;20096;-78
2022/09/24 13:06:51;;;;;;;4.93;1.15;;;15.20;99.90;;;;;;5032694;28;20104;-78
2022/09/24 13:12:51;;;;;;;3.90;0.90;;;14.80;99.90;;;;;;5072418;28;20428;-79
2022/09/24 13:16:04;;;;;;;3.38;1.00;;;15.30;99.90;;;;;;5048565;28;20020;-77
2022/09/24 13:22:10;;;;;;;5.72;1.33;;;14.90;99.90;;;;;;5035941;28;20067;-78
2022/09/24 13:24:46;;;;;;;6.05;1.40;;;15.10;99.90;;;;;;5064349;28;20214;-77
2022/09/24 13:30:34;;;;;;;5.25;1.23;;;14.60;99.90;;;;;;5066092;28;20042;-78
2022/09/24 13:33:45;;;;;;;4.60;1.50;;;15.10;99.90;;;;;;5043849;28;20036;-78
2022/09/24 13:37:02;;;;;;;6.35;1.70;;;14.70;99.90;;;;;;5063871;28;20123;-78
2022/09/24 13:43:40;;;;;;;5.57;1.40;;;14.70;99.90;;;;;;5026523;28;20354;-77
2022/09/24 13:53:31;;;;;;;8.68;1.63;;;14.80;99.90;;;;;;5004053;28;20046;-76
2022/09/24 13:56:06;;;;;;;4.28;1.30;;;14.80;99.90;;;;;;5045556;28;20036;-77
2022/09/24 13:58:40;;;;;;;5.65;1.70;;;14.30;99.90;;;;;;5064283;28;20029;-74
2022/09/24 14:01:56;;;;;;;4.78;1.65;;;14.70;99.90;;;;;;5049498;28;20035;-74
2022/09/24 14:04:23;;;;;;;4.43;1.30;;;14.40;99.90;;;;;;5028050;28;20040;-76
2022/09/24 14:06:54;;;;;;;7.72;1.50;;;14.30;99.90;;;;;;5028099;28;20033;-76
2022/09/24 14:09:29;;;;;;;4.25;1.30;;;14.60;99.90;;;;;;5061991;28;20032;-76
2022/09/24 14:12:21;;;;;;;5.20;1.65;;;14.30;99.90;;;;;;5048571;28;20090;-77
2022/09/24 14:14:56;;;;;;;4.07;1.30;;;14.60;99.90;;;;;;5039231;28;20055;-76
2022/09/24 14:17:23;;;;;;;4.40;1.40;;;14.80;99.90;;;;;;5072936;28;20049;-75
2022/09/24 14:19:55;;;;;;;6.47;1.60;;;14.60;99.90;;;;;;5063475;28;20021;-75
2022/09/24 14:22:35;;;;;;;7.05;1.20;;;15.00;99.90;;;;;;5048860;28;20055;-76
2022/09/24 14:25:08;;;;;;;5.15;1.35;;;14.50;99.90;;;;;;5042544;28;20068;-77
2022/09/24 14:27:39;;;;;;;3.67;1.10;;;14.50;99.90;;;;;;5044162;28;20037;-75
2022/09/24 14:30:07;;;;;;;4.95;1.30;;;14.50;99.90;;;;;;5044207;28;20076;-75
2022/09/24 14:32:41;;;;;;;10.35;1.40;;;14.90;99.90;;;;;;5063381;28;20382;-75
2022/09/24 14:35:19;;;;;;;3.67;1.13;;;14.80;99.90;;;;;;5047774;28;20036;-75
2022/09/24 14:37:52;;;;;;;5.28;1.45;;;14.60;99.90;;;;;;5050342;28;20099;-75
2022/09/24 14:40:21;;;;;;;5.70;1.92;;;14.50;99.90;;;;;;5063635;28;20037;-76
2022/09/24 14:42:52;;;;;;;9.75;1.52;;;14.70;99.90;;;;;;5043737;28;20048;-75
2022/09/24 14:45:19;;;;;;;6.70;1.90;;;14.50;99.90;;;;;;5027951;28;20342;-75
2022/09/24 14:47:48;;;;;;;6.20;1.55;;;14.50;99.90;;;;;;5045357;28;20024;-75
2022/09/24 14:50:29;;;;;;;3.85;1.58;;;14.20;99.90;;;;;;5048514;28;20041;-76
2022/09/24 14:52:56;;;;;;;5.47;1.30;;;14.10;99.90;;;;;;5080350;28;20111;-74
2022/09/24 14:55:38;;;;;;;6.47;1.10;;;14.20;99.90;;;;;;5076975;28;20237;-76
2022/09/24 14:58:04;;;;;;;4.97;1.35;;;14.00;99.90;;;;;;5080226;28;20037;-76
2022/09/24 15:00:44;;;;;;;2.55;1.10;;;14.00;99.90;;;;;;5080117;28;20226;-75
2022/09/24 15:03:15;;;;;;;3.33;1.10;;;14.30;99.90;;;;;;5075889;28;20036;-75
2022/09/24 15:09:51;;;;;;;;;;;;;;;;;;;;;
2022/09/24 15:20:13;;;;;;;4.45;1.23;;;13.80;99.90;;;;;;4919567;28;20049;-74
2022/09/24 15:22:45;;;;;;;5.15;1.30;;;14.60;99.90;;;;;;4979966;28;20040;-75
2022/09/24 15:25:13;;;;;;;5.15;1.83;;;14.60;99.90;;;;;;5043811;28;20079;-75
2022/09/24 15:27:41;;;;;;;6.32;1.38;;;14.60;99.90;;;;;;5078100;28;20072;-76